Neraida — V7UA7 — position and weather

sailwx.info

Track history (hours):
 
Tides and Currents Weather Stations Pressure Air Temp Water Temp Dewpoint Dewpoint Depression Visibility Wind Speed Wind Dir Waves Ship Positions

Neraida

Last reported at 2018-Feb-21 02:54 UTC. Time now 2018-Feb-24 00:07 UTC.
Position N 33°02' W 120°25'.

Length 190 m; draft 9.1 m.

Type: Cargo ship. MMSI: 538006998.

Date/timePositionNaut miles runAvg speedWind from/ knotsBaromVisibWave heightAir tempDewpointWater temp
2018-Feb-21 02:54N 33°02' W 120°25'512.8
2018-Feb-21 02:30N 33°07' W 120°28'612.8
2018-Feb-21 02:00N 33°12' W 120°32'612.9
2018-Feb-21 01:30N 33°18' W 120°36'612.7
2018-Feb-21 01:01N 33°23' W 120°40'612.5
2018-Feb-21 00:31N 33°29' W 120°44'612.4
2018-Feb-21 00:01N 33°34' W 120°48'612.3
2018-Feb-20 23:30N 33°39' W 120°52'612.1
2018-Feb-20 23:01N 33°44' W 120°55'612.1
2018-Feb-20 22:31N 33°50' W 120°59'612.4
2018-Feb-20 22:00N 33°55' W 121°02'612.6
2018-Feb-20 21:30N 34°00' W 121°07'612.7
2018-Feb-20 21:01N 34°06' W 121°11'612.4
2018-Feb-20 20:30N 34°11' W 121°15'612.1
2018-Feb-20 20:00N 34°16' W 121°18'611.8
2018-Feb-20 19:31N 34°21' W 121°22'612.1
2018-Feb-20 19:01N 34°27' W 121°25'612.1
2018-Feb-20 18:31N 34°33' W 121°27'612.0
2018-Feb-20 18:01N 34°38' W 121°30'612.1
2018-Feb-20 17:31N 34°44' W 121°33'612.3
2018-Feb-20 17:00N 34°49' W 121°36'612.1
2018-Feb-20 16:31N 34°55' W 121°38'912.0
2018-Feb-20 15:47N 35°03' W 121°42'312.1
2018-Feb-20 15:30N 35°06' W 121°43'11111.8
2018-Feb-20 06:06N 36°49' W 122°34'311.9
2018-Feb-20 05:50N 36°52' W 122°35'412.1
2018-Feb-20 05:30N 36°56' W 122°37'612.4
2018-Feb-20 05:00N 37°02' W 122°40'611.9
2018-Feb-20 04:30N 37°07' W 122°42'611.8
2018-Feb-20 04:01N 37°13' W 122°44'612.3
2018-Feb-20 03:31N 37°19' W 122°44'612.3
2018-Feb-20 03:01N 37°25' W 122°44'612.4
2018-Feb-20 02:30N 37°32' W 122°44'612.4
2018-Feb-20 02:01N 37°38' W 122°43'611.6
2018-Feb-20 01:31N 37°43' W 122°41'3 7.0
2018-Feb-20 01:01N 37°46' W 122°38'510.2
2018-Feb-20 00:30N 37°48' W 122°32'611.6
2018-Feb-20 00:01N 37°51' W 122°25'510.0
2018-Feb-19 23:31N 37°55' W 122°27'510.0
2018-Feb-19 23:00N 38°00' W 122°25'5 9.4
2018-Feb-19 22:31N 38°03' W 122°20'5 9.1
2018-Feb-19 22:00N 38°04' W 122°14'4 8.5
2018-Feb-19 21:30N 38°02' W 122°09'5 8.0
2018-Feb-19 20:49N 38°04' W 122°03'510.4
2018-Feb-19 20:20N 38°03' W 121°57'4 9.1
2018-Feb-19 19:51N 38°02' W 121°51'  
2018-Feb-15 19:02N 38°01' W 121°48'010.0
2018-Feb-15 19:00N 38°01' W 121°48'4 7.5
2018-Feb-15 18:30N 38°02' W 121°53'5 9.6
2018-Feb-15 17:58N 38°04' W 121°59'5 8.5
2018-Feb-15 17:24N 38°03' W 122°05'4 9.0
2018-Feb-15 17:00N 38°02' W 122°09'5 9.0
2018-Feb-15 16:30N 38°04' W 122°14'510.7
2018-Feb-15 16:00N 38°03' W 122°21'611.3
2018-Feb-15 15:30N 37°58' W 122°26'510.2
2018-Feb-15 15:00N 37°53' W 122°26'510.2
2018-Feb-15 14:30N 37°49' W 122°23'510.4
2018-Feb-15 14:01N 37°44' W 122°20'1 1.2
2018-Feb-15 13:29N 37°44' W 122°20'0 0.1
2018-Feb-15 12:59N 37°44' W 122°20'0 0.1
2018-Feb-15 12:29N 37°44' W 122°20'0 0.0
2018-Feb-15 11:59N 37°44' W 122°20'0 0.0
2018-Feb-15 11:29N 37°44' W 122°20'0 0.0
2018-Feb-15 10:59N 37°44' W 122°20'0 0.1
2018-Feb-15 10:29N 37°44' W 122°20'0 0.0
2018-Feb-15 09:59N 37°44' W 122°20'0 0.1
2018-Feb-15 09:29N 37°44' W 122°20'0 0.3
2018-Feb-15 08:59N 37°44' W 122°19'0 0.1
2018-Feb-15 08:29N 37°44' W 122°19'0 0.0
2018-Feb-15 07:59N 37°44' W 122°19'0 0.0
2018-Feb-15 07:29N 37°44' W 122°19'0 0.0
2018-Feb-15 06:59N 37°44' W 122°19'0 0.0
2018-Feb-15 06:29N 37°44' W 122°19'0 0.0
2018-Feb-15 05:59N 37°44' W 122°19'0 0.0
2018-Feb-15 05:29N 37°44' W 122°19'0 0.0
2018-Feb-15 04:59N 37°44' W 122°19'0 0.0
2018-Feb-15 04:29N 37°44' W 122°19'0 0.0
2018-Feb-15 03:59N 37°44' W 122°19'0 0.0
2018-Feb-15 03:29N 37°44' W 122°19'0 0.1
2018-Feb-15 02:59N 37°44' W 122°19'0 0.0
2018-Feb-15 02:29N 37°44' W 122°19'0 0.1
2018-Feb-15 01:59N 37°44' W 122°19'0 0.2
2018-Feb-15 01:29N 37°44' W 122°19'0 0.1
2018-Feb-15 00:59N 37°44' W 122°20'0 0.1
2018-Feb-15 00:29N 37°44' W 122°20'0 0.0
2018-Feb-14 23:59N 37°44' W 122°20'0 0.0
2018-Feb-14 23:29N 37°44' W 122°20'0 0.0
2018-Feb-14 22:59N 37°44' W 122°20'0 0.0
2018-Feb-14 22:29N 37°44' W 122°20'0 0.0
2018-Feb-14 21:59N 37°44' W 122°20'0 0.0
2018-Feb-14 21:29N 37°44' W 122°20'0 0.0
2018-Feb-14 20:59N 37°44' W 122°20'0 0.0
2018-Feb-14 20:29N 37°44' W 122°20'0 0.0
2018-Feb-14 19:59N 37°44' W 122°20'0 0.4
2018-Feb-14 19:29N 37°44' W 122°19'0 0.0
2018-Feb-14 18:59N 37°44' W 122°19'0 0.1
2018-Feb-14 18:29N 37°44' W 122°19'0 0.0
2018-Feb-14 17:59N 37°44' W 122°19'0 0.0
2018-Feb-14 17:29N 37°44' W 122°19'0 0.0
2018-Feb-14 16:59N 37°44' W 122°19'0 0.0
2018-Feb-14 16:29N 37°44' W 122°19'0 0.0
2018-Feb-14 15:59N 37°44' W 122°19'0 0.0
2018-Feb-14 15:29N 37°44' W 122°19'0 0.0
2018-Feb-14 14:59N 37°44' W 122°19'0 0.1
2018-Feb-14 14:29N 37°44' W 122°19'0 0.0
2018-Feb-14 13:59N 37°44' W 122°19'0 0.3
2018-Feb-14 13:29N 37°44' W 122°20'0 0.1
2018-Feb-14 12:59N 37°44' W 122°20'0 0.0
2018-Feb-14 12:29N 37°44' W 122°20'0 0.1
2018-Feb-14 11:59N 37°44' W 122°20'0 0.0
2018-Feb-14 11:29N 37°44' W 122°20'0 0.0
2018-Feb-14 10:59N 37°44' W 122°20'0 0.0
2018-Feb-14 10:29N 37°44' W 122°20'0 0.1
2018-Feb-14 09:59N 37°44' W 122°20'0 0.0
2018-Feb-14 09:29N 37°44' W 122°20'0 0.3
2018-Feb-14 08:59N 37°44' W 122°20'0 0.2
2018-Feb-14 08:29N 37°44' W 122°19'0 0.0
2018-Feb-14 07:59N 37°44' W 122°19'0 0.0
2018-Feb-14 07:29N 37°44' W 122°19'0 0.0
2018-Feb-14 06:59N 37°44' W 122°19'0 0.0
2018-Feb-14 06:29N 37°44' W 122°19'0 0.0
2018-Feb-14 05:59N 37°44' W 122°19'0 0.0
2018-Feb-14 05:29N 37°44' W 122°19'0 0.0
2018-Feb-14 04:59N 37°44' W 122°19'0 0.0
2018-Feb-14 04:29N 37°44' W 122°19'0 0.0
2018-Feb-14 03:59N 37°44' W 122°19'0 0.0
2018-Feb-14 03:29N 37°44' W 122°19'0 0.0
2018-Feb-14 02:59N 37°44' W 122°19'0 0.0
2018-Feb-14 02:29N 37°44' W 122°19'0 0.2
2018-Feb-14 01:59N 37°44' W 122°20'0 0.3
2018-Feb-14 01:29N 37°44' W 122°20'0 0.1
2018-Feb-14 00:59N 37°44' W 122°20'0 0.1
2018-Feb-14 00:29N 37°44' W 122°20'0 0.1
2018-Feb-13 23:59N 37°44' W 122°20'0 0.0
2018-Feb-13 23:29N 37°44' W 122°20'0 0.0
2018-Feb-13 22:59N 37°44' W 122°20'0 0.0
2018-Feb-13 22:29N 37°44' W 122°20'0 0.0
2018-Feb-13 21:59N 37°44' W 122°20'0 0.0
2018-Feb-13 21:29N 37°44' W 122°20'0 0.0
2018-Feb-13 20:59N 37°44' W 122°20'0 0.0
2018-Feb-13 20:29N 37°44' W 122°20'0 0.0
2018-Feb-13 19:59N 37°44' W 122°20'0 0.0
2018-Feb-13 19:29N 37°44' W 122°20'0 0.1
2018-Feb-13 18:59N 37°44' W 122°20'0 0.3
2018-Feb-13 18:29N 37°44' W 122°20'0 0.2
2018-Feb-13 17:59N 37°44' W 122°19'0 0.0
2018-Feb-13 17:29N 37°44' W 122°19'0 0.0
2018-Feb-13 16:59N 37°44' W 122°19'0 0.0
2018-Feb-13 16:29N 37°44' W 122°19'0 0.0
2018-Feb-13 15:59N 37°44' W 122°19'0 0.0
2018-Feb-13 15:29N 37°44' W 122°19'0 0.0
2018-Feb-13 14:59N 37°44' W 122°19'0 0.1
2018-Feb-13 14:29N 37°44' W 122°19'0 0.1
2018-Feb-13 13:59N 37°44' W 122°19'0 0.0
2018-Feb-13 13:29N 37°44' W 122°19'0 0.0
2018-Feb-13 12:59N 37°44' W 122°19'0 0.3
2018-Feb-13 12:29N 37°44' W 122°19'0 0.2
2018-Feb-13 11:59N 37°44' W 122°20'0 0.0
2018-Feb-13 11:29N 37°44' W 122°20'0 0.0
2018-Feb-13 10:59N 37°44' W 122°20'0 0.0
2018-Feb-13 10:29N 37°44' W 122°20'0 0.1
2018-Feb-13 09:59N 37°44' W 122°20'0 0.1
2018-Feb-13 09:29N 37°44' W 122°20'0 0.1
2018-Feb-13 08:59N 37°44' W 122°20'0 0.1
2018-Feb-13 08:29N 37°44' W 122°20'0 0.1
2018-Feb-13 07:59N 37°44' W 122°19'0 0.0
2018-Feb-13 07:29N 37°44' W 122°19'0 0.0
2018-Feb-13 06:59N 37°44' W 122°19'0 0.1
2018-Feb-13 06:29N 37°44' W 122°19'0 0.0
2018-Feb-13 05:59N 37°44' W 122°19'0 0.0
2018-Feb-13 05:29N 37°44' W 122°19'0 0.0
2018-Feb-13 04:59N 37°44' W 122°19'0 0.0
2018-Feb-13 04:29N 37°44' W 122°19'0 0.0
2018-Feb-13 03:59N 37°44' W 122°19'0 0.0
2018-Feb-13 03:29N 37°44' W 122°19'0 0.0
2018-Feb-13 02:59N 37°44' W 122°19'0 0.1
2018-Feb-13 02:29N 37°44' W 122°19'0 0.0
2018-Feb-13 01:59N 37°44' W 122°19'0 0.0
2018-Feb-13 01:26N 37°44' W 122°19'0 0.0
2018-Feb-13 00:59N 37°44' W 122°19'0 0.1
2018-Feb-13 00:29N 37°44' W 122°19'0 0.1
2018-Feb-12 23:59N 37°44' W 122°19'0 0.2
2018-Feb-12 23:29N 37°44' W 122°20'0 0.1
2018-Feb-12 22:59N 37°44' W 122°20'0 0.1
2018-Feb-12 22:29N 37°44' W 122°20'0 0.0
2018-Feb-12 21:59N 37°44' W 122°20'0 0.0
2018-Feb-12 21:29N 37°44' W 122°20'0 0.0
2018-Feb-12 20:59N 37°44' W 122°20'0 0.0
2018-Feb-12 20:29N 37°44' W 122°20'0 0.0
2018-Feb-12 19:59N 37°44' W 122°20'0 0.1
2018-Feb-12 19:29N 37°44' W 122°20'0 0.4
2018-Feb-12 18:59N 37°44' W 122°19'0 0.0
2018-Feb-12 18:29N 37°44' W 122°19'0 0.1
2018-Feb-12 17:59N 37°44' W 122°19'0 0.0
2018-Feb-12 17:29N 37°44' W 122°19'0 0.1
2018-Feb-12 16:59N 37°44' W 122°19'0 0.1
2018-Feb-12 16:29N 37°44' W 122°19'0 0.0
2018-Feb-12 15:59N 37°44' W 122°19'0 0.0
2018-Feb-12 15:29N 37°44' W 122°19'0 0.0
2018-Feb-12 14:59N 37°44' W 122°19'0 0.1
2018-Feb-12 14:29N 37°44' W 122°19'0 0.1
2018-Feb-12 13:59N 37°44' W 122°19'0 0.0
2018-Feb-12 13:29N 37°44' W 122°19'0 0.0
2018-Feb-12 12:59N 37°44' W 122°19'0 0.1
2018-Feb-12 12:29N 37°44' W 122°19'0 0.0
2018-Feb-12 11:59N 37°44' W 122°19'0 0.1
2018-Feb-12 11:29N 37°44' W 122°19'0 0.2
2018-Feb-12 10:59N 37°44' W 122°19'0 0.1
2018-Feb-12 10:29N 37°44' W 122°19'0 0.0
2018-Feb-12 09:59N 37°44' W 122°19'0 0.0
2018-Feb-12 09:29N 37°44' W 122°19'0 0.0
2018-Feb-12 08:59N 37°44' W 122°19'0 0.0
2018-Feb-12 08:29N 37°44' W 122°19'0 0.1
2018-Feb-12 07:59N 37°44' W 122°19'0 0.1
2018-Feb-12 07:29N 37°44' W 122°19'0 0.1
2018-Feb-12 06:59N 37°44' W 122°19'0 0.2
2018-Feb-12 06:29N 37°44' W 122°19'0 0.0
2018-Feb-12 05:59N 37°44' W 122°19'0 0.1
2018-Feb-12 05:29N 37°44' W 122°19'0 0.1
2018-Feb-12 04:59N 37°44' W 122°19'0 0.0
2018-Feb-12 04:29N 37°44' W 122°19'0 0.1
2018-Feb-12 03:59N 37°44' W 122°19'0 0.0
2018-Feb-12 03:29N 37°44' W 122°19'0 0.0
2018-Feb-12 02:59N 37°44' W 122°19'0 0.0
2018-Feb-12 02:29N 37°44' W 122°19'0 0.0
2018-Feb-12 01:59N 37°44' W 122°19'0 0.0
2018-Feb-12 01:29N 37°44' W 122°19'0 0.0
2018-Feb-12 00:59N 37°44' W 122°19'0 0.0
2018-Feb-12 00:29N 37°44' W 122°19'0 0.0
2018-Feb-11 23:59N 37°44' W 122°19'0 0.0
2018-Feb-11 23:29N 37°44' W 122°19'0 0.0
2018-Feb-11 22:59N 37°44' W 122°19'0 0.0
2018-Feb-11 22:29N 37°44' W 122°19'0 0.1
2018-Feb-11 21:53N 37°44' W 122°19'0 0.1
2018-Feb-11 21:29N 37°44' W 122°19'0 0.2
2018-Feb-11 20:59N 37°44' W 122°20'0 0.0
2018-Feb-11 20:29N 37°44' W 122°20'0 0.0
2018-Feb-11 19:59N 37°44' W 122°20'0 0.1
2018-Feb-11 19:29N 37°44' W 122°19'0 0.0
2018-Feb-11 18:59N 37°44' W 122°19'0 0.2
2018-Feb-11 18:29N 37°44' W 122°19'0 0.1
2018-Feb-11 17:59N 37°44' W 122°19'0 0.0
2018-Feb-11 17:29N 37°44' W 122°19'0 0.2
2018-Feb-11 16:59N 37°44' W 122°19'0 0.0
2018-Feb-11 16:29N 37°44' W 122°19'0 0.0
2018-Feb-11 15:59N 37°44' W 122°19'0 0.0
2018-Feb-11 15:29N 37°44' W 122°19'0 0.1
2018-Feb-11 14:59N 37°44' W 122°19'0 0.1
2018-Feb-11 14:29N 37°44' W 122°19'0 0.0
2018-Feb-11 13:59N 37°44' W 122°19'0 0.0
2018-Feb-11 13:26N 37°44' W 122°19'0 0.1
2018-Feb-11 12:59N 37°44' W 122°19'0 0.2
2018-Feb-11 12:29N 37°44' W 122°19'0 0.2
2018-Feb-11 11:59N 37°44' W 122°19'0 0.2
2018-Feb-11 11:29N 37°44' W 122°20'0 0.1
2018-Feb-11 10:56N 37°44' W 122°20'0 0.0
2018-Feb-11 10:29N 37°44' W 122°20'0 0.0
2018-Feb-11 09:59N 37°44' W 122°20'0 0.0
2018-Feb-11 09:29N 37°44' W 122°20'0 0.1
2018-Feb-11 08:59N 37°44' W 122°20'0 0.0
2018-Feb-11 08:29N 37°44' W 122°20'0 0.1
2018-Feb-11 07:59N 37°44' W 122°20'0 0.2
2018-Feb-11 07:29N 37°44' W 122°20'0 0.1
2018-Feb-11 06:59N 37°44' W 122°19'0 0.0
2018-Feb-11 06:29N 37°44' W 122°19'0 0.1
2018-Feb-11 05:59N 37°44' W 122°19'0 0.1
2018-Feb-11 05:29N 37°44' W 122°19'0 0.0
2018-Feb-11 04:59N 37°44' W 122°19'0 0.0
2018-Feb-11 04:29N 37°44' W 122°19'0 0.0
2018-Feb-11 03:59N 37°44' W 122°19'0 0.1
2018-Feb-11 03:29N 37°44' W 122°19'0 0.1
2018-Feb-11 02:59N 37°44' W 122°19'  
Track history (hours):
 
Tides and Currents Weather Stations Pressure Air Temp Water Temp Dewpoint Dewpoint Depression Visibility Wind Speed Wind Dir Waves Ship Positions

Neraida

Last reported at 2018-Feb-21 02:54 UTC. Time now 2018-Feb-24 00:07 UTC.
Position N 33°02' W 120°25'.

Length 190 m; draft 9.1 m.

Type: Cargo ship. MMSI: 538006998.

Date/timePositionNaut miles runAvg speedWind from/ knotsBaromVisibWave heightAir tempDewpointWater temp
2018-Feb-21 02:54N 33°02' W 120°25'512.8
2018-Feb-21 02:30N 33°07' W 120°28'612.8
2018-Feb-21 02:00N 33°12' W 120°32'612.9
2018-Feb-21 01:30N 33°18' W 120°36'612.7
2018-Feb-21 01:01N 33°23' W 120°40'612.5
2018-Feb-21 00:31N 33°29' W 120°44'612.4
2018-Feb-21 00:01N 33°34' W 120°48'612.3
2018-Feb-20 23:30N 33°39' W 120°52'612.1
2018-Feb-20 23:01N 33°44' W 120°55'612.1
2018-Feb-20 22:31N 33°50' W 120°59'612.4
2018-Feb-20 22:00N 33°55' W 121°02'612.6
2018-Feb-20 21:30N 34°00' W 121°07'612.7
2018-Feb-20 21:01N 34°06' W 121°11'612.4
2018-Feb-20 20:30N 34°11' W 121°15'612.1
2018-Feb-20 20:00N 34°16' W 121°18'611.8
2018-Feb-20 19:31N 34°21' W 121°22'612.1
2018-Feb-20 19:01N 34°27' W 121°25'612.1
2018-Feb-20 18:31N 34°33' W 121°27'612.0
2018-Feb-20 18:01N 34°38' W 121°30'612.1
2018-Feb-20 17:31N 34°44' W 121°33'612.3
2018-Feb-20 17:00N 34°49' W 121°36'612.1
2018-Feb-20 16:31N 34°55' W 121°38'912.0
2018-Feb-20 15:47N 35°03' W 121°42'312.1
2018-Feb-20 15:30N 35°06' W 121°43'11111.8
2018-Feb-20 06:06N 36°49' W 122°34'311.9
2018-Feb-20 05:50N 36°52' W 122°35'412.1
2018-Feb-20 05:30N 36°56' W 122°37'612.4
2018-Feb-20 05:00N 37°02' W 122°40'611.9
2018-Feb-20 04:30N 37°07' W 122°42'611.8
2018-Feb-20 04:01N 37°13' W 122°44'612.3
2018-Feb-20 03:31N 37°19' W 122°44'612.3
2018-Feb-20 03:01N 37°25' W 122°44'612.4
2018-Feb-20 02:30N 37°32' W 122°44'612.4
2018-Feb-20 02:01N 37°38' W 122°43'611.6
2018-Feb-20 01:31N 37°43' W 122°41'3 7.0
2018-Feb-20 01:01N 37°46' W 122°38'510.2
2018-Feb-20 00:30N 37°48' W 122°32'611.6
2018-Feb-20 00:01N 37°51' W 122°25'510.0
2018-Feb-19 23:31N 37°55' W 122°27'510.0
2018-Feb-19 23:00N 38°00' W 122°25'5 9.4
2018-Feb-19 22:31N 38°03' W 122°20'5 9.1
2018-Feb-19 22:00N 38°04' W 122°14'4 8.5
2018-Feb-19 21:30N 38°02' W 122°09'5 8.0
2018-Feb-19 20:49N 38°04' W 122°03'510.4
2018-Feb-19 20:20N 38°03' W 121°57'4 9.1
2018-Feb-19 19:51N 38°02' W 121°51'  
2018-Feb-15 19:02N 38°01' W 121°48'010.0
2018-Feb-15 19:00N 38°01' W 121°48'4 7.5
2018-Feb-15 18:30N 38°02' W 121°53'5 9.6
2018-Feb-15 17:58N 38°04' W 121°59'5 8.5
2018-Feb-15 17:24N 38°03' W 122°05'4 9.0
2018-Feb-15 17:00N 38°02' W 122°09'5 9.0
2018-Feb-15 16:30N 38°04' W 122°14'510.7
2018-Feb-15 16:00N 38°03' W 122°21'611.3
2018-Feb-15 15:30N 37°58' W 122°26'510.2
2018-Feb-15 15:00N 37°53' W 122°26'510.2
2018-Feb-15 14:30N 37°49' W 122°23'510.4
2018-Feb-15 14:01N 37°44' W 122°20'1 1.2
2018-Feb-15 13:29N 37°44' W 122°20'0 0.1
2018-Feb-15 12:59N 37°44' W 122°20'0 0.1
2018-Feb-15 12:29N 37°44' W 122°20'0 0.0
2018-Feb-15 11:59N 37°44' W 122°20'0 0.0
2018-Feb-15 11:29N 37°44' W 122°20'0 0.0
2018-Feb-15 10:59N 37°44' W 122°20'0 0.1
2018-Feb-15 10:29N 37°44' W 122°20'0 0.0
2018-Feb-15 09:59N 37°44' W 122°20'0 0.1
2018-Feb-15 09:29N 37°44' W 122°20'0 0.3
2018-Feb-15 08:59N 37°44' W 122°19'0 0.1
2018-Feb-15 08:29N 37°44' W 122°19'0 0.0
2018-Feb-15 07:59N 37°44' W 122°19'0 0.0
2018-Feb-15 07:29N 37°44' W 122°19'0 0.0
2018-Feb-15 06:59N 37°44' W 122°19'0 0.0
2018-Feb-15 06:29N 37°44' W 122°19'0 0.0
2018-Feb-15 05:59N 37°44' W 122°19'0 0.0
2018-Feb-15 05:29N 37°44' W 122°19'0 0.0
2018-Feb-15 04:59N 37°44' W 122°19'0 0.0
2018-Feb-15 04:29N 37°44' W 122°19'0 0.0
2018-Feb-15 03:59N 37°44' W 122°19'0 0.0
2018-Feb-15 03:29N 37°44' W 122°19'0 0.1
2018-Feb-15 02:59N 37°44' W 122°19'0 0.0
2018-Feb-15 02:29N 37°44' W 122°19'0 0.1
2018-Feb-15 01:59N 37°44' W 122°19'0 0.2
2018-Feb-15 01:29N 37°44' W 122°19'0 0.1
2018-Feb-15 00:59N 37°44' W 122°20'0 0.1
2018-Feb-15 00:29N 37°44' W 122°20'0 0.0
2018-Feb-14 23:59N 37°44' W 122°20'0 0.0
2018-Feb-14 23:29N 37°44' W 122°20'0 0.0
2018-Feb-14 22:59N 37°44' W 122°20'0 0.0
2018-Feb-14 22:29N 37°44' W 122°20'0 0.0
2018-Feb-14 21:59N 37°44' W 122°20'0 0.0
2018-Feb-14 21:29N 37°44' W 122°20'0 0.0
2018-Feb-14 20:59N 37°44' W 122°20'0 0.0
2018-Feb-14 20:29N 37°44' W 122°20'0 0.0
2018-Feb-14 19:59N 37°44' W 122°20'0 0.4
2018-Feb-14 19:29N 37°44' W 122°19'0 0.0
2018-Feb-14 18:59N 37°44' W 122°19'0 0.1
2018-Feb-14 18:29N 37°44' W 122°19'0 0.0
2018-Feb-14 17:59N 37°44' W 122°19'0 0.0
2018-Feb-14 17:29N 37°44' W 122°19'0 0.0
2018-Feb-14 16:59N 37°44' W 122°19'0 0.0
2018-Feb-14 16:29N 37°44' W 122°19'0 0.0
2018-Feb-14 15:59N 37°44' W 122°19'0 0.0
2018-Feb-14 15:29N 37°44' W 122°19'0 0.0
2018-Feb-14 14:59N 37°44' W 122°19'0 0.1
2018-Feb-14 14:29N 37°44' W 122°19'0 0.0
2018-Feb-14 13:59N 37°44' W 122°19'0 0.3
2018-Feb-14 13:29N 37°44' W 122°20'0 0.1
2018-Feb-14 12:59N 37°44' W 122°20'0 0.0
2018-Feb-14 12:29N 37°44' W 122°20'0 0.1
2018-Feb-14 11:59N 37°44' W 122°20'0 0.0
2018-Feb-14 11:29N 37°44' W 122°20'0 0.0
2018-Feb-14 10:59N 37°44' W 122°20'0 0.0
2018-Feb-14 10:29N 37°44' W 122°20'0 0.1
2018-Feb-14 09:59N 37°44' W 122°20'0 0.0
2018-Feb-14 09:29N 37°44' W 122°20'0 0.3
2018-Feb-14 08:59N 37°44' W 122°20'0 0.2
2018-Feb-14 08:29N 37°44' W 122°19'0 0.0
2018-Feb-14 07:59N 37°44' W 122°19'0 0.0
2018-Feb-14 07:29N 37°44' W 122°19'0 0.0
2018-Feb-14 06:59N 37°44' W 122°19'0 0.0
2018-Feb-14 06:29N 37°44' W 122°19'0 0.0
2018-Feb-14 05:59N 37°44' W 122°19'0 0.0
2018-Feb-14 05:29N 37°44' W 122°19'0 0.0
2018-Feb-14 04:59N 37°44' W 122°19'0 0.0
2018-Feb-14 04:29N 37°44' W 122°19'0 0.0
2018-Feb-14 03:59N 37°44' W 122°19'0 0.0
2018-Feb-14 03:29N 37°44' W 122°19'0 0.0
2018-Feb-14 02:59N 37°44' W 122°19'0 0.0
2018-Feb-14 02:29N 37°44' W 122°19'0 0.2
2018-Feb-14 01:59N 37°44' W 122°20'0 0.3
2018-Feb-14 01:29N 37°44' W 122°20'0 0.1
2018-Feb-14 00:59N 37°44' W 122°20'0 0.1
2018-Feb-14 00:29N 37°44' W 122°20'0 0.1
2018-Feb-13 23:59N 37°44' W 122°20'0 0.0
2018-Feb-13 23:29N 37°44' W 122°20'0 0.0
2018-Feb-13 22:59N 37°44' W 122°20'0 0.0
2018-Feb-13 22:29N 37°44' W 122°20'0 0.0
2018-Feb-13 21:59N 37°44' W 122°20'0 0.0
2018-Feb-13 21:29N 37°44' W 122°20'0 0.0
2018-Feb-13 20:59N 37°44' W 122°20'0 0.0
2018-Feb-13 20:29N 37°44' W 122°20'0 0.0
2018-Feb-13 19:59N 37°44' W 122°20'0 0.0
2018-Feb-13 19:29N 37°44' W 122°20'0 0.1
2018-Feb-13 18:59N 37°44' W 122°20'0 0.3
2018-Feb-13 18:29N 37°44' W 122°20'0 0.2
2018-Feb-13 17:59N 37°44' W 122°19'0 0.0
2018-Feb-13 17:29N 37°44' W 122°19'0 0.0
2018-Feb-13 16:59N 37°44' W 122°19'0 0.0
2018-Feb-13 16:29N 37°44' W 122°19'0 0.0
2018-Feb-13 15:59N 37°44' W 122°19'0 0.0
2018-Feb-13 15:29N 37°44' W 122°19'0 0.0
2018-Feb-13 14:59N 37°44' W 122°19'0 0.1
2018-Feb-13 14:29N 37°44' W 122°19'0 0.1
2018-Feb-13 13:59N 37°44' W 122°19'0 0.0
2018-Feb-13 13:29N 37°44' W 122°19'0 0.0
2018-Feb-13 12:59N 37°44' W 122°19'0 0.3
2018-Feb-13 12:29N 37°44' W 122°19'0 0.2
2018-Feb-13 11:59N 37°44' W 122°20'0 0.0
2018-Feb-13 11:29N 37°44' W 122°20'0 0.0
2018-Feb-13 10:59N 37°44' W 122°20'0 0.0
2018-Feb-13 10:29N 37°44' W 122°20'0 0.1
2018-Feb-13 09:59N 37°44' W 122°20'0 0.1
2018-Feb-13 09:29N 37°44' W 122°20'0 0.1
2018-Feb-13 08:59N 37°44' W 122°20'0 0.1
2018-Feb-13 08:29N 37°44' W 122°20'0 0.1
2018-Feb-13 07:59N 37°44' W 122°19'0 0.0
2018-Feb-13 07:29N 37°44' W 122°19'0 0.0
2018-Feb-13 06:59N 37°44' W 122°19'0 0.1
2018-Feb-13 06:29N 37°44' W 122°19'0 0.0
2018-Feb-13 05:59N 37°44' W 122°19'0 0.0
2018-Feb-13 05:29N 37°44' W 122°19'0 0.0
2018-Feb-13 04:59N 37°44' W 122°19'0 0.0
2018-Feb-13 04:29N 37°44' W 122°19'0 0.0
2018-Feb-13 03:59N 37°44' W 122°19'0 0.0
2018-Feb-13 03:29N 37°44' W 122°19'0 0.0
2018-Feb-13 02:59N 37°44' W 122°19'0 0.1
2018-Feb-13 02:29N 37°44' W 122°19'0 0.0
2018-Feb-13 01:59N 37°44' W 122°19'0 0.0
2018-Feb-13 01:26N 37°44' W 122°19'0 0.0
2018-Feb-13 00:59N 37°44' W 122°19'0 0.1
2018-Feb-13 00:29N 37°44' W 122°19'0 0.1
2018-Feb-12 23:59N 37°44' W 122°19'0 0.2
2018-Feb-12 23:29N 37°44' W 122°20'0 0.1
2018-Feb-12 22:59N 37°44' W 122°20'0 0.1
2018-Feb-12 22:29N 37°44' W 122°20'0 0.0
2018-Feb-12 21:59N 37°44' W 122°20'0 0.0
2018-Feb-12 21:29N 37°44' W 122°20'0 0.0
2018-Feb-12 20:59N 37°44' W 122°20'0 0.0
2018-Feb-12 20:29N 37°44' W 122°20'0 0.0
2018-Feb-12 19:59N 37°44' W 122°20'0 0.1
2018-Feb-12 19:29N 37°44' W 122°20'0 0.4
2018-Feb-12 18:59N 37°44' W 122°19'0 0.0
2018-Feb-12 18:29N 37°44' W 122°19'0 0.1
2018-Feb-12 17:59N 37°44' W 122°19'0 0.0
2018-Feb-12 17:29N 37°44' W 122°19'0 0.1
2018-Feb-12 16:59N 37°44' W 122°19'0 0.1
2018-Feb-12 16:29N 37°44' W 122°19'0 0.0
2018-Feb-12 15:59N 37°44' W 122°19'0 0.0
2018-Feb-12 15:29N 37°44' W 122°19'0 0.0
2018-Feb-12 14:59N 37°44' W 122°19'0 0.1
2018-Feb-12 14:29N 37°44' W 122°19'0 0.1
2018-Feb-12 13:59N 37°44' W 122°19'0 0.0
2018-Feb-12 13:29N 37°44' W 122°19'0 0.0
2018-Feb-12 12:59N 37°44' W 122°19'0 0.1
2018-Feb-12 12:29N 37°44' W 122°19'0 0.0
2018-Feb-12 11:59N 37°44' W 122°19'0 0.1
2018-Feb-12 11:29N 37°44' W 122°19'0 0.2
2018-Feb-12 10:59N 37°44' W 122°19'0 0.1
2018-Feb-12 10:29N 37°44' W 122°19'0 0.0
2018-Feb-12 09:59N 37°44' W 122°19'0 0.0
2018-Feb-12 09:29N 37°44' W 122°19'0 0.0
2018-Feb-12 08:59N 37°44' W 122°19'0 0.0
2018-Feb-12 08:29N 37°44' W 122°19'0 0.1
2018-Feb-12 07:59N 37°44' W 122°19'0 0.1
2018-Feb-12 07:29N 37°44' W 122°19'0 0.1
2018-Feb-12 06:59N 37°44' W 122°19'0 0.2
2018-Feb-12 06:29N 37°44' W 122°19'0 0.0
2018-Feb-12 05:59N 37°44' W 122°19'0 0.1
2018-Feb-12 05:29N 37°44' W 122°19'0 0.1
2018-Feb-12 04:59N 37°44' W 122°19'0 0.0
2018-Feb-12 04:29N 37°44' W 122°19'0 0.1
2018-Feb-12 03:59N 37°44' W 122°19'0 0.0
2018-Feb-12 03:29N 37°44' W 122°19'0 0.0
2018-Feb-12 02:59N 37°44' W 122°19'0 0.0
2018-Feb-12 02:29N 37°44' W 122°19'0 0.0
2018-Feb-12 01:59N 37°44' W 122°19'0 0.0
2018-Feb-12 01:29N 37°44' W 122°19'0 0.0
2018-Feb-12 00:59N 37°44' W 122°19'0 0.0
2018-Feb-12 00:29N 37°44' W 122°19'0 0.0
2018-Feb-11 23:59N 37°44' W 122°19'0 0.0
2018-Feb-11 23:29N 37°44' W 122°19'0 0.0
2018-Feb-11 22:59N 37°44' W 122°19'0 0.0
2018-Feb-11 22:29N 37°44' W 122°19'0 0.1
2018-Feb-11 21:53N 37°44' W 122°19'0 0.1
2018-Feb-11 21:29N 37°44' W 122°19'0 0.2
2018-Feb-11 20:59N 37°44' W 122°20'0 0.0
2018-Feb-11 20:29N 37°44' W 122°20'0 0.0
2018-Feb-11 19:59N 37°44' W 122°20'0 0.1
2018-Feb-11 19:29N 37°44' W 122°19'0 0.0
2018-Feb-11 18:59N 37°44' W 122°19'0 0.2
2018-Feb-11 18:29N 37°44' W 122°19'0 0.1
2018-Feb-11 17:59N 37°44' W 122°19'0 0.0
2018-Feb-11 17:29N 37°44' W 122°19'0 0.2
2018-Feb-11 16:59N 37°44' W 122°19'0 0.0
2018-Feb-11 16:29N 37°44' W 122°19'0 0.0
2018-Feb-11 15:59N 37°44' W 122°19'0 0.0
2018-Feb-11 15:29N 37°44' W 122°19'0 0.1
2018-Feb-11 14:59N 37°44' W 122°19'0 0.1
2018-Feb-11 14:29N 37°44' W 122°19'0 0.0
2018-Feb-11 13:59N 37°44' W 122°19'0 0.0
2018-Feb-11 13:26N 37°44' W 122°19'0 0.1
2018-Feb-11 12:59N 37°44' W 122°19'0 0.2
2018-Feb-11 12:29N 37°44' W 122°19'0 0.2
2018-Feb-11 11:59N 37°44' W 122°19'0 0.2
2018-Feb-11 11:29N 37°44' W 122°20'0 0.1
2018-Feb-11 10:56N 37°44' W 122°20'0 0.0
2018-Feb-11 10:29N 37°44' W 122°20'0 0.0
2018-Feb-11 09:59N 37°44' W 122°20'0 0.0
2018-Feb-11 09:29N 37°44' W 122°20'0 0.1
2018-Feb-11 08:59N 37°44' W 122°20'0 0.0
2018-Feb-11 08:29N 37°44' W 122°20'0 0.1
2018-Feb-11 07:59N 37°44' W 122°20'0 0.2
2018-Feb-11 07:29N 37°44' W 122°20'0 0.1
2018-Feb-11 06:59N 37°44' W 122°19'0 0.0
2018-Feb-11 06:29N 37°44' W 122°19'0 0.1
2018-Feb-11 05:59N 37°44' W 122°19'0 0.1
2018-Feb-11 05:29N 37°44' W 122°19'0 0.0
2018-Feb-11 04:59N 37°44' W 122°19'0 0.0
2018-Feb-11 04:29N 37°44' W 122°19'0 0.0
2018-Feb-11 03:59N 37°44' W 122°19'0 0.1
2018-Feb-11 03:29N 37°44' W 122°19'0 0.1
2018-Feb-11 02:59N 37°44' W 122°19'  

Dump ship's entire track history